createdAt,value
2023-02-13T00:00:27.010Z,76.67
2023-02-13T00:02:56.597Z,76.79
2023-02-13T00:05:26.174Z,76.64
2023-02-13T00:07:55.741Z,76.79
2023-02-13T00:10:25.338Z,76.94
2023-02-13T00:12:57.945Z,76.90
2023-02-13T00:15:27.600Z,76.83
2023-02-13T00:17:57.228Z,77.02
2023-02-13T00:20:26.872Z,76.88
2023-02-13T00:22:56.438Z,77.04
2023-02-13T00:25:26.018Z,76.90
2023-02-13T00:27:58.267Z,77.10
2023-02-13T00:30:27.856Z,77.13
2023-02-13T00:32:57.421Z,77.18
2023-02-13T00:35:27.607Z,77.17
2023-02-13T00:37:57.175Z,77.12
2023-02-13T00:40:27.555Z,77.18
2023-02-13T00:42:59.778Z,77.41
2023-02-13T00:45:29.469Z,77.40
2023-02-13T00:47:59.084Z,77.46
2023-02-13T00:50:28.645Z,77.37
2023-02-13T00:52:58.201Z,77.63
2023-02-13T00:55:27.787Z,77.39
2023-02-13T00:57:59.954Z,77.53
2023-02-13T01:00:29.535Z,77.73
2023-02-13T01:02:59.121Z,77.78
2023-02-13T01:05:28.845Z,77.63
2023-02-13T01:07:58.462Z,77.69
2023-02-13T01:10:28.545Z,77.64
2023-02-13T01:13:00.815Z,78.01
2023-02-13T01:15:30.496Z,77.87
2023-02-13T01:18:00.999Z,77.89
2023-02-13T01:20:31.841Z,77.78
2023-02-13T01:23:02.674Z,78.06
2023-02-13T01:25:32.262Z,78.29
2023-02-13T01:28:04.495Z,78.31
2023-02-13T01:30:34.131Z,78.29
2023-02-13T01:33:03.749Z,78.20
2023-02-13T01:35:33.843Z,78.22
2023-02-13T01:38:04.891Z,78.50
2023-02-13T01:40:34.854Z,78.55
2023-02-13T01:43:07.007Z,78.50
2023-02-13T01:45:36.843Z,78.77
2023-02-13T01:48:08.111Z,78.57
2023-02-13T01:50:40.172Z,78.72
2023-02-13T01:53:12.946Z,78.80
2023-02-13T01:55:48.695Z,78.69
2023-02-13T01:58:23.967Z,78.87
2023-02-13T02:00:53.569Z,78.85
2023-02-13T02:03:27.432Z,78.97
2023-02-13T02:06:01.010Z,78.93
2023-02-13T02:08:31.024Z,79.04
2023-02-13T02:11:04.425Z,79.19
2023-02-13T02:13:36.601Z,79.18
2023-02-13T02:16:10.648Z,79.12
2023-02-13T02:18:40.245Z,79.19
2023-02-13T02:21:34.842Z,79.23
2023-02-13T02:24:51.861Z,79.19
2023-02-13T02:27:35.161Z,79.28
2023-02-13T02:30:37.620Z,79.22
2023-02-13T02:33:19.523Z,79.23
2023-02-13T02:36:01.336Z,79.41
2023-02-13T02:38:43.805Z,79.27
2023-02-13T02:41:39.006Z,79.42
2023-02-13T02:44:18.420Z,79.31
2023-02-13T02:47:09.179Z,79.49
2023-02-13T02:49:56.542Z,79.45
2023-02-13T02:52:30.660Z,79.62
2023-02-13T02:55:11.478Z,79.31
2023-02-13T02:58:05.743Z,79.64
2023-02-13T03:00:50.531Z,79.43
2023-02-13T03:03:33.936Z,79.49
2023-02-13T03:06:15.753Z,79.71
2023-02-13T03:08:59.656Z,80.00
2023-02-13T03:11:41.882Z,79.96
2023-02-13T03:14:13.647Z,79.74
2023-02-13T03:16:56.450Z,79.90
2023-02-13T03:19:45.991Z,79.77
2023-02-13T03:22:28.079Z,79.99
2023-02-13T03:25:05.268Z,80.00
2023-02-13T03:27:53.649Z,79.78
2023-02-13T03:30:30.435Z,79.94
2023-02-13T03:33:07.712Z,79.92
2023-02-13T03:35:53.737Z,79.99
2023-02-13T03:38:29.008Z,79.89
2023-02-13T03:41:20.116Z,79.70
2023-02-13T03:44:04.388Z,79.86
2023-02-13T03:46:36.175Z,79.76
2023-02-13T03:49:20.656Z,79.91
2023-02-13T03:51:52.079Z,79.92
2023-02-13T03:54:41.335Z,79.97
2023-02-13T03:57:23.955Z,79.76
2023-02-13T03:59:53.700Z,79.80
2023-02-13T04:02:27.700Z,79.79
2023-02-13T04:05:02.082Z,79.79
2023-02-13T04:07:35.559Z,79.82
2023-02-13T04:10:10.872Z,79.88
2023-02-13T04:12:43.424Z,79.85
2023-02-13T04:15:17.568Z,79.86
2023-02-13T04:17:48.142Z,79.86
2023-02-13T04:20:17.871Z,79.86
2023-02-13T04:22:48.217Z,79.88
2023-02-13T04:25:20.860Z,80.04
2023-02-13T04:27:50.421Z,79.92
2023-02-13T04:30:20.839Z,79.98
2023-02-13T04:32:50.396Z,80.04
2023-02-13T04:35:19.985Z,80.32
2023-02-13T04:37:49.570Z,80.01
2023-02-13T04:40:22.031Z,80.26
2023-02-13T04:42:52.011Z,80.05
2023-02-13T04:45:22.088Z,80.31
2023-02-13T04:47:55.196Z,79.99
2023-02-13T04:50:25.353Z,80.02
2023-02-13T04:52:56.610Z,80.08
2023-02-13T04:55:30.016Z,80.11
2023-02-13T04:57:59.821Z,79.99
2023-02-13T05:00:30.960Z,80.10
2023-02-13T05:03:03.991Z,80.17
2023-02-13T05:05:33.629Z,79.95
2023-02-13T05:08:03.205Z,80.06
2023-02-13T05:10:35.509Z,80.03
2023-02-13T05:13:05.107Z,79.98
2023-02-13T05:15:34.822Z,80.16
2023-02-13T05:18:04.503Z,80.12
2023-02-13T05:20:34.153Z,80.07
2023-02-13T05:23:16.151Z,79.96
2023-02-13T05:25:48.337Z,80.00
2023-02-13T05:28:30.270Z,80.43
2023-02-13T05:31:00.576Z,80.40
2023-02-13T05:33:30.618Z,80.30
2023-02-13T05:36:00.203Z,80.38
2023-02-13T05:38:29.796Z,80.59
2023-02-13T05:41:04.454Z,80.76
2023-02-13T05:43:34.022Z,80.78
2023-02-13T05:46:08.114Z,80.74
2023-02-13T05:48:37.626Z,81.02
2023-02-13T05:51:08.004Z,80.97
2023-02-13T05:53:37.972Z,81.08
2023-02-13T05:56:10.310Z,81.14
2023-02-13T05:58:40.115Z,81.38
2023-02-13T06:01:09.726Z,81.39
2023-02-13T06:03:40.328Z,81.58
2023-02-13T06:06:10.233Z,81.60
2023-02-13T06:08:39.774Z,81.87
2023-02-13T06:11:12.524Z,82.23
2023-02-13T06:13:42.559Z,82.27
2023-02-13T06:16:12.441Z,82.55
2023-02-13T06:18:42.276Z,82.59
2023-02-13T06:21:12.374Z,82.83
2023-02-13T06:23:41.964Z,83.00
2023-02-13T06:26:14.180Z,82.90
2023-02-13T06:28:43.763Z,83.04
2023-02-13T06:31:13.521Z,83.28
2023-02-13T06:33:43.133Z,83.02
2023-02-13T06:36:12.713Z,82.97
2023-02-13T06:38:43.107Z,83.06
2023-02-13T06:41:15.261Z,83.14
2023-02-13T06:43:46.067Z,83.17
2023-02-13T06:46:15.697Z,83.55
2023-02-13T06:48:45.440Z,83.75
2023-02-13T06:51:15.004Z,83.83
2023-02-13T06:53:44.587Z,84.05
2023-02-13T06:56:16.716Z,84.47
2023-02-13T06:58:46.504Z,84.35
2023-02-13T07:01:16.121Z,84.48
2023-02-13T07:03:47.071Z,84.53
2023-02-13T07:06:20.453Z,84.95
2023-02-13T07:08:55.272Z,85.01
2023-02-13T07:11:28.184Z,85.15
2023-02-13T07:13:57.775Z,85.25
2023-02-13T07:16:27.588Z,85.54
2023-02-13T07:18:57.198Z,85.41
2023-02-13T07:21:26.737Z,85.32
2023-02-13T07:23:56.299Z,85.07
2023-02-13T07:26:29.689Z,85.00
2023-02-13T07:29:10.452Z,84.75
2023-02-13T07:31:41.353Z,84.92
2023-02-13T07:34:11.048Z,85.13
2023-02-13T07:36:40.717Z,84.83
2023-02-13T07:39:10.601Z,84.40
2023-02-13T07:41:42.819Z,84.08
2023-02-13T07:44:12.502Z,83.84
2023-02-13T07:46:42.061Z,83.41
2023-02-13T07:49:12.199Z,83.26
2023-02-13T07:51:41.754Z,83.05
2023-02-13T07:54:11.364Z,82.40
2023-02-13T07:56:43.533Z,81.87
2023-02-13T07:59:13.546Z,80.86
2023-02-13T08:01:43.236Z,79.80
2023-02-13T08:04:12.876Z,78.82
2023-02-13T08:06:42.956Z,77.40
2023-02-13T08:09:32.819Z,75.83
2023-02-13T08:12:05.167Z,75.14
2023-02-13T08:14:34.806Z,74.78
2023-02-13T08:17:04.647Z,74.20
2023-02-13T08:19:34.292Z,73.67
2023-02-13T08:22:03.840Z,72.62
2023-02-13T08:24:33.399Z,71.39
2023-02-13T08:27:05.537Z,69.94
2023-02-13T08:29:35.396Z,68.47
2023-02-13T08:32:04.975Z,67.00
2023-02-13T08:34:34.578Z,65.72
2023-02-13T08:37:04.415Z,64.27
2023-02-13T08:39:33.985Z,63.05
2023-02-13T08:42:06.409Z,62.59
2023-02-13T08:44:36.078Z,61.97
2023-02-13T08:47:05.806Z,59.91
2023-02-13T08:49:35.426Z,59.43
2023-02-13T08:52:05.893Z,58.37
2023-02-13T08:54:37.635Z,57.77
2023-02-13T08:57:09.846Z,56.78
2023-02-13T08:59:39.422Z,55.89
2023-02-13T09:02:09.253Z,55.55
2023-02-13T09:04:38.853Z,54.12
2023-02-13T09:07:08.548Z,52.69
2023-02-13T09:09:38.119Z,52.27
2023-02-13T09:12:10.521Z,51.88
2023-02-13T09:14:40.101Z,50.95
2023-02-13T09:17:09.675Z,50.03
2023-02-13T09:19:39.280Z,49.46
2023-02-13T09:22:08.866Z,49.05
2023-02-13T09:24:38.491Z,48.30
2023-02-13T09:27:10.866Z,47.30
2023-02-13T09:29:40.448Z,46.69
2023-02-13T09:32:10.418Z,45.72
2023-02-13T09:34:40.052Z,45.44
2023-02-13T09:37:09.694Z,45.06
2023-02-13T09:39:39.290Z,45.14
2023-02-13T09:42:20.256Z,43.58
2023-02-13T09:44:51.554Z,43.89
2023-02-13T09:47:25.488Z,43.72
2023-02-13T09:49:56.612Z,44.12
2023-02-13T09:52:26.162Z,44.28
2023-02-13T09:54:55.742Z,43.32
2023-02-13T09:57:32.085Z,42.67
2023-02-13T10:00:11.933Z,42.69
2023-02-13T10:02:54.656Z,41.79
2023-02-13T10:05:40.475Z,42.53
2023-02-13T10:08:14.158Z,42.13
2023-02-13T10:10:54.173Z,41.40
2023-02-13T10:13:37.778Z,41.38
2023-02-13T10:16:12.544Z,40.82
2023-02-13T10:18:48.402Z,40.66
2023-02-13T10:21:18.766Z,40.77
2023-02-13T10:23:50.677Z,40.42
2023-02-13T10:26:24.264Z,40.37
2023-02-13T10:29:13.665Z,40.61
2023-02-13T10:31:44.136Z,40.93
2023-02-13T10:34:17.922Z,41.12
2023-02-13T10:36:49.269Z,42.67
2023-02-13T10:39:25.882Z,43.75
2023-02-13T10:41:57.967Z,44.75
2023-02-13T10:44:49.432Z,45.78
2023-02-13T10:47:30.934Z,46.50
2023-02-13T10:50:09.821Z,48.16
2023-02-13T10:52:49.998Z,48.98
2023-02-13T10:55:38.286Z,50.18
2023-02-13T10:58:12.171Z,50.92
2023-02-13T11:00:49.524Z,51.68
2023-02-13T11:03:22.021Z,52.18
2023-02-13T11:05:52.559Z,52.64
2023-02-13T11:08:24.692Z,53.06
2023-02-13T11:10:54.774Z,53.26
2023-02-13T11:13:26.505Z,53.72
2023-02-13T11:16:04.915Z,53.83
2023-02-13T11:18:37.290Z,54.27
2023-02-13T11:21:12.136Z,54.41
2023-02-13T11:23:47.528Z,54.79
2023-02-13T11:26:19.391Z,55.00
2023-02-13T11:28:52.078Z,54.82
2023-02-13T11:31:32.634Z,55.05
2023-02-13T11:34:03.965Z,54.92
2023-02-13T11:36:35.037Z,54.99
2023-02-13T11:39:06.983Z,55.00
2023-02-13T11:41:43.104Z,55.13
2023-02-13T11:44:24.987Z,55.27
2023-02-13T11:46:58.430Z,55.38
2023-02-13T11:49:29.614Z,55.76
2023-02-13T11:52:00.540Z,55.88
2023-02-13T11:54:33.718Z,55.94
2023-02-13T11:57:06.045Z,55.88
2023-02-13T11:59:43.038Z,56.13
2023-02-13T12:02:23.859Z,56.29
2023-02-13T12:04:55.185Z,56.10
2023-02-13T12:07:29.879Z,56.24
2023-02-13T12:10:03.045Z,56.01
2023-02-13T12:12:39.816Z,56.22
2023-02-13T12:15:19.409Z,56.11
2023-02-13T12:18:00.181Z,56.37
2023-02-13T12:20:31.564Z,56.60
2023-02-13T12:23:06.181Z,56.45
2023-02-13T12:25:51.821Z,56.15
2023-02-13T12:28:26.641Z,56.07
2023-02-13T12:31:09.572Z,56.08
2023-02-13T12:34:06.794Z,55.86
2023-02-13T12:36:39.557Z,55.76
2023-02-13T12:39:20.613Z,55.89
2023-02-13T12:41:59.538Z,55.88
2023-02-13T12:44:41.738Z,55.56
2023-02-13T12:47:19.208Z,55.53
2023-02-13T12:50:06.604Z,55.31
2023-02-13T12:52:49.581Z,54.94
2023-02-13T12:55:30.634Z,55.04
2023-02-13T12:58:11.766Z,54.86
2023-02-13T13:00:48.546Z,54.65
2023-02-13T13:03:31.727Z,54.49
2023-02-13T13:06:24.181Z,54.33
2023-02-13T13:09:19.162Z,54.59
2023-02-13T13:12:12.099Z,54.74
2023-02-13T13:14:48.022Z,54.69
2023-02-13T13:17:25.234Z,54.71
2023-02-13T13:19:59.335Z,54.27
2023-02-13T13:22:32.167Z,54.51
2023-02-13T13:25:08.510Z,54.59
2023-02-13T13:27:41.083Z,54.59
2023-02-13T13:30:19.194Z,54.10
2023-02-13T13:32:51.306Z,54.25
2023-02-13T13:35:23.050Z,54.35
2023-02-13T13:38:02.721Z,54.42
2023-02-13T13:40:40.284Z,54.15
2023-02-13T13:43:21.510Z,54.04
2023-02-13T13:45:58.164Z,54.03
2023-02-13T13:48:52.913Z,53.91
2023-02-13T13:51:22.297Z,54.33
2023-02-13T13:54:25.240Z,54.45
2023-02-13T13:57:12.538Z,54.50
2023-02-13T14:00:18.641Z,54.16
2023-02-13T14:02:51.671Z,54.11
2023-02-13T14:05:30.413Z,54.06
2023-02-13T14:08:01.847Z,53.71
2023-02-13T14:11:07.299Z,53.40
2023-02-13T14:13:41.402Z,53.95
2023-02-13T14:16:12.638Z,54.08
2023-02-13T14:18:49.241Z,54.11
2023-02-13T14:21:25.776Z,53.94
2023-02-13T14:24:00.695Z,53.94
2023-02-13T14:26:41.406Z,53.91
2023-02-13T14:29:38.905Z,54.08
2023-02-13T14:32:20.066Z,53.87
2023-02-13T14:34:59.140Z,53.79
2023-02-13T14:37:35.777Z,53.80
2023-02-13T14:40:43.907Z,53.69
2023-02-13T14:43:26.062Z,53.93
2023-02-13T14:46:01.024Z,53.72
2023-02-13T14:48:38.881Z,53.79
2023-02-13T14:51:09.068Z,53.62
2023-02-13T14:53:48.309Z,53.56
2023-02-13T14:56:22.657Z,53.39
2023-02-13T14:58:55.057Z,53.33
2023-02-13T15:01:33.577Z,53.61
2023-02-13T15:04:08.631Z,53.69
2023-02-13T15:06:42.857Z,53.73
2023-02-13T15:09:25.246Z,53.55
2023-02-13T15:11:54.858Z,53.74
2023-02-13T15:14:28.016Z,53.98
2023-02-13T15:17:02.478Z,53.82
2023-02-13T15:19:32.667Z,53.67
2023-02-13T15:22:04.231Z,53.42
2023-02-13T15:24:40.207Z,52.94
2023-02-13T15:27:10.678Z,53.05
2023-02-13T15:29:49.522Z,52.82
2023-02-13T15:32:30.400Z,52.96
2023-02-13T15:35:00.040Z,52.86
2023-02-13T15:37:32.433Z,52.76
2023-02-13T15:40:18.101Z,52.70
2023-02-13T15:42:47.803Z,52.83
2023-02-13T15:45:19.350Z,52.61
2023-02-13T15:47:52.069Z,52.80
2023-02-13T15:50:23.299Z,52.78
2023-02-13T15:52:54.470Z,52.65
2023-02-13T15:55:26.402Z,52.65
2023-02-13T15:57:58.714Z,52.65
2023-02-13T16:00:30.024Z,52.78
2023-02-13T16:03:04.613Z,53.03
2023-02-13T16:05:40.751Z,52.97
2023-02-13T16:08:30.351Z,53.36
2023-02-13T16:11:19.781Z,53.39
2023-02-13T16:14:01.852Z,53.52
2023-02-13T16:16:32.043Z,53.78
2023-02-13T16:19:04.424Z,53.98
2023-02-13T16:21:35.972Z,54.10
2023-02-13T16:24:07.442Z,54.19
2023-02-13T16:26:39.291Z,54.15
2023-02-13T16:29:12.446Z,54.30
2023-02-13T16:31:42.572Z,54.41
2023-02-13T16:34:27.986Z,54.44
2023-02-13T16:36:58.326Z,54.80
2023-02-13T16:39:30.950Z,54.97
2023-02-13T16:42:01.542Z,55.48
2023-02-13T16:44:32.724Z,55.76
2023-02-13T16:47:04.150Z,55.92
2023-02-13T16:49:37.825Z,56.11
2023-02-13T16:52:13.520Z,56.33
2023-02-13T16:54:51.865Z,56.54
2023-02-13T16:57:24.179Z,56.61
2023-02-13T17:00:04.007Z,56.85
2023-02-13T17:02:35.809Z,57.09
2023-02-13T17:05:22.870Z,57.16
2023-02-13T17:07:54.662Z,57.38
2023-02-13T17:10:27.304Z,57.51
2023-02-13T17:12:59.611Z,57.53
2023-02-13T17:15:30.651Z,57.77
2023-02-13T17:18:00.458Z,57.92
2023-02-13T17:20:34.554Z,58.15
2023-02-13T17:23:04.749Z,58.25
2023-02-13T17:25:36.074Z,58.35
2023-02-13T17:28:14.657Z,58.72
2023-02-13T17:30:45.057Z,58.75
2023-02-13T17:33:16.973Z,58.98
2023-02-13T17:35:49.120Z,59.18
2023-02-13T17:38:19.522Z,59.61
2023-02-13T17:40:49.620Z,59.78
2023-02-13T17:43:21.015Z,60.04
2023-02-13T17:45:51.443Z,60.48
2023-02-13T17:48:21.085Z,61.10
2023-02-13T17:50:53.602Z,61.59
2023-02-13T17:53:25.071Z,61.80
2023-02-13T17:55:54.732Z,62.04
2023-02-13T17:58:24.330Z,62.24
2023-02-13T18:00:54.087Z,62.66
2023-02-13T18:03:23.729Z,62.61
2023-02-13T18:05:55.891Z,63.01
2023-02-13T18:08:25.504Z,63.15
2023-02-13T18:10:55.082Z,63.38
2023-02-13T18:13:24.645Z,63.40
2023-02-13T18:15:54.842Z,63.47
2023-02-13T18:18:24.424Z,63.67
2023-02-13T18:21:00.396Z,64.09
2023-02-13T18:23:30.257Z,64.13
2023-02-13T18:26:07.569Z,64.24
2023-02-13T18:28:37.993Z,64.29
2023-02-13T18:31:07.931Z,64.38
2023-02-13T18:33:37.566Z,64.35
2023-02-13T18:36:10.220Z,64.56
2023-02-13T18:38:39.790Z,64.64
2023-02-13T18:41:09.343Z,64.63
2023-02-13T18:43:38.938Z,64.88
2023-02-13T18:46:08.576Z,64.84
2023-02-13T18:48:38.252Z,64.83
2023-02-13T18:51:10.607Z,65.30
2023-02-13T18:53:40.217Z,65.43
2023-02-13T18:56:11.633Z,65.49
2023-02-13T18:58:41.258Z,65.83
2023-02-13T19:01:12.029Z,66.09
2023-02-13T19:03:41.795Z,65.97
2023-02-13T19:06:16.643Z,66.07
2023-02-13T19:08:46.373Z,66.36
2023-02-13T19:11:17.662Z,66.36
2023-02-13T19:13:48.187Z,66.63
2023-02-13T19:16:19.267Z,66.70
2023-02-13T19:18:52.184Z,67.00
2023-02-13T19:21:25.603Z,66.97
2023-02-13T19:23:55.694Z,67.31
2023-02-13T19:26:26.878Z,67.28
2023-02-13T19:28:56.938Z,67.37
2023-02-13T19:31:28.469Z,67.45
2023-02-13T19:33:59.488Z,67.69
2023-02-13T19:36:32.688Z,67.70
2023-02-13T19:39:05.090Z,67.76
2023-02-13T19:41:36.046Z,67.89
2023-02-13T19:44:06.170Z,67.98
2023-02-13T19:46:35.939Z,68.19
2023-02-13T19:49:05.965Z,68.38
2023-02-13T19:51:41.991Z,68.31
2023-02-13T19:54:13.511Z,68.00
2023-02-13T19:56:43.738Z,68.28
2023-02-13T19:59:14.482Z,68.52
2023-02-13T20:01:45.729Z,68.76
2023-02-13T20:04:15.525Z,68.51
2023-02-13T20:06:47.725Z,68.87
2023-02-13T20:09:17.376Z,68.81
2023-02-13T20:11:46.964Z,68.82
2023-02-13T20:14:17.139Z,69.01
2023-02-13T20:16:47.309Z,69.15
2023-02-13T20:19:17.024Z,69.36
2023-02-13T20:21:49.336Z,69.37
2023-02-13T20:24:18.978Z,69.49
2023-02-13T20:26:48.643Z,69.42
2023-02-13T20:29:18.560Z,69.58
2023-02-13T20:31:48.226Z,69.52
2023-02-13T20:34:17.849Z,69.65
2023-02-13T20:36:50.037Z,69.73
2023-02-13T20:39:19.683Z,69.71
2023-02-13T20:41:50.515Z,70.00
2023-02-13T20:44:22.662Z,69.86
2023-02-13T20:46:52.351Z,69.69
2023-02-13T20:49:22.338Z,69.92
2023-02-13T20:51:54.554Z,70.04
2023-02-13T20:54:24.197Z,70.17
2023-02-13T20:56:53.754Z,69.86
2023-02-13T20:59:23.327Z,70.10
2023-02-13T21:01:53.217Z,70.00
2023-02-13T21:04:22.956Z,69.98
2023-02-13T21:06:55.701Z,70.22
2023-02-13T21:09:25.860Z,70.15
2023-02-13T21:11:55.515Z,70.19
2023-02-13T21:14:25.233Z,70.37
2023-02-13T21:16:54.832Z,70.38
2023-02-13T21:19:24.710Z,70.58
2023-02-13T21:22:11.046Z,70.54
2023-02-13T21:24:41.387Z,70.71
2023-02-13T21:27:11.970Z,70.78
2023-02-13T21:29:43.688Z,71.01
2023-02-13T21:32:13.445Z,71.28
2023-02-13T21:34:43.361Z,71.47
2023-02-13T21:37:15.538Z,71.50
2023-02-13T21:39:45.155Z,71.60
2023-02-13T21:42:15.163Z,71.86
2023-02-13T21:44:44.755Z,72.15
2023-02-13T21:47:16.120Z,72.38
2023-02-13T21:49:45.778Z,72.30
2023-02-13T21:52:18.342Z,72.64
2023-02-13T21:54:48.477Z,72.68
2023-02-13T21:57:18.043Z,73.10
2023-02-13T21:59:47.619Z,73.24
2023-02-13T22:02:17.295Z,73.27
2023-02-13T22:04:47.158Z,73.46
2023-02-13T22:07:19.355Z,73.68
2023-02-13T22:09:48.924Z,73.73
2023-02-13T22:12:18.497Z,73.85
2023-02-13T22:14:48.113Z,74.06
2023-02-13T22:17:17.667Z,74.04
2023-02-13T22:19:47.274Z,74.13
2023-02-13T22:22:19.484Z,74.27
2023-02-13T22:24:49.077Z,74.29
2023-02-13T22:27:18.699Z,74.37
2023-02-13T22:29:48.287Z,74.54
2023-02-13T22:32:18.320Z,74.51
2023-02-13T22:34:48.023Z,74.48
2023-02-13T22:37:20.216Z,74.46
2023-02-13T22:39:49.986Z,74.49
2023-02-13T22:42:19.692Z,74.57
2023-02-13T22:44:49.340Z,74.42
2023-02-13T22:47:19.106Z,74.35
2023-02-13T22:49:48.703Z,74.29
2023-02-13T22:52:20.920Z,74.41
2023-02-13T22:54:50.894Z,74.28
2023-02-13T22:57:20.506Z,74.46
2023-02-13T22:59:50.108Z,74.61
2023-02-13T23:02:19.719Z,74.60
2023-02-13T23:04:50.064Z,74.79
2023-02-13T23:07:22.351Z,74.64
2023-02-13T23:09:51.912Z,74.77
2023-02-13T23:12:33.995Z,74.75
2023-02-13T23:15:03.586Z,74.89
2023-02-13T23:17:45.828Z,74.83
2023-02-13T23:20:15.902Z,74.87
2023-02-13T23:22:48.563Z,74.87
2023-02-13T23:25:18.580Z,74.85
2023-02-13T23:27:48.182Z,74.98
2023-02-13T23:30:19.716Z,75.05
2023-02-13T23:32:49.730Z,75.03
2023-02-13T23:35:19.787Z,75.14
2023-02-13T23:37:52.066Z,75.20
2023-02-13T23:40:22.349Z,74.99
2023-02-13T23:42:51.922Z,75.13
2023-02-13T23:45:21.633Z,75.07
2023-02-13T23:47:51.243Z,75.01
2023-02-13T23:50:20.896Z,75.34
2023-02-13T23:52:53.050Z,75.07
2023-02-13T23:55:22.648Z,75.16
2023-02-13T23:57:52.705Z,75.11
